sensor_id;sensor_type;location;lat;lon;timestamp;pressure;altitude;pressure_sealevel;temperature;humidity
80749;BME280;70145;53.746;9.970;2023-11-22T00:02:19;102585.63;;;2.07;58.71
80749;BME280;70145;53.746;9.970;2023-11-22T00:04:45;102580.38;;;2.03;58.63
80749;BME280;70145;53.746;9.970;2023-11-22T00:07:11;102570.69;;;1.99;58.58
80749;BME280;70145;53.746;9.970;2023-11-22T00:09:36;102559.28;;;1.95;58.42
80749;BME280;70145;53.746;9.970;2023-11-22T00:12:01;102562.00;;;1.92;58.62
80749;BME280;70145;53.746;9.970;2023-11-22T00:14:27;102559.44;;;1.88;58.48
80749;BME280;70145;53.746;9.970;2023-11-22T00:16:53;102561.25;;;1.84;58.30
80749;BME280;70145;53.746;9.970;2023-11-22T00:19:18;102563.16;;;1.79;58.10
80749;BME280;70145;53.746;9.970;2023-11-22T00:21:48;102566.75;;;1.77;58.46
80749;BME280;70145;53.746;9.970;2023-11-22T00:24:14;102566.84;;;1.72;58.79
80749;BME280;70145;53.746;9.970;2023-11-22T00:26:39;102569.53;;;1.69;58.30
80749;BME280;70145;53.746;9.970;2023-11-22T00:29:04;102572.25;;;1.66;57.97
80749;BME280;70145;53.746;9.970;2023-11-22T00:31:30;102572.31;;;1.63;58.32
80749;BME280;70145;53.746;9.970;2023-11-22T00:33:56;102569.72;;;1.60;58.39
80749;BME280;70145;53.746;9.970;2023-11-22T00:36:21;102576.00;;;1.56;58.12
80749;BME280;70145;53.746;9.970;2023-11-22T00:38:46;102592.91;;;1.52;58.13
80749;BME280;70145;53.746;9.970;2023-11-22T00:41:12;102594.72;;;1.49;58.26
80749;BME280;70145;53.746;9.970;2023-11-22T00:43:40;102608.03;;;1.46;57.76
80749;BME280;70145;53.746;9.970;2023-11-22T00:46:05;102610.75;;;1.43;57.66
80749;BME280;70145;53.746;9.970;2023-11-22T00:48:31;102614.38;;;1.39;58.04
80749;BME280;70145;53.746;9.970;2023-11-22T00:50:56;102622.41;;;1.34;57.96
80749;BME280;70145;53.746;9.970;2023-11-22T00:53:22;102630.44;;;1.30;57.87
80749;BME280;70145;53.746;9.970;2023-11-22T00:55:48;102633.16;;;1.25;57.98
80749;BME280;70145;53.746;9.970;2023-11-22T00:58:13;102645.59;;;1.23;58.00
80749;BME280;70145;53.746;9.970;2023-11-22T01:00:39;102651.81;;;1.21;58.15
80749;BME280;70145;53.746;9.970;2023-11-22T01:03:04;102644.81;;;1.17;57.93
80749;BME280;70145;53.746;9.970;2023-11-22T01:05:30;102638.69;;;1.15;58.17
80749;BME280;70145;53.746;9.970;2023-11-22T01:07:55;102636.91;;;1.12;57.90
80749;BME280;70145;53.746;9.970;2023-11-22T01:10:20;102637.84;;;1.11;58.44
80749;BME280;70145;53.746;9.970;2023-11-22T01:12:46;102634.31;;;1.09;58.29
80749;BME280;70145;53.746;9.970;2023-11-22T01:15:11;102618.44;;;1.06;58.49
80749;BME280;70145;53.746;9.970;2023-11-22T01:17:36;102628.19;;;1.06;58.21
80749;BME280;70145;53.746;9.970;2023-11-22T01:20:02;102621.13;;;1.03;58.29
80749;BME280;70145;53.746;9.970;2023-11-22T01:22:28;102618.47;;;1.03;58.33
80749;BME280;70145;53.746;9.970;2023-11-22T01:24:54;102616.75;;;1.00;57.89
80749;BME280;70145;53.746;9.970;2023-11-22T01:27:19;102616.81;;;0.97;58.32
80749;BME280;70145;53.746;9.970;2023-11-22T01:29:44;102627.44;;;0.96;58.12
80749;BME280;70145;53.746;9.970;2023-11-22T01:32:09;102621.31;;;0.94;58.48
80749;BME280;70145;53.746;9.970;2023-11-22T01:34:35;102628.41;;;0.92;57.76
80749;BME280;70145;53.746;9.970;2023-11-22T01:37:01;102625.75;;;0.90;58.53
80749;BME280;70145;53.746;9.970;2023-11-22T01:39:26;102631.09;;;0.89;57.98
80749;BME280;70145;53.746;9.970;2023-11-22T01:41:52;102637.34;;;0.86;58.05
80749;BME280;70145;53.746;9.970;2023-11-22T01:44:17;102639.13;;;0.83;58.05
80749;BME280;70145;53.746;9.970;2023-11-22T01:46:43;102651.56;;;0.81;57.85
80749;BME280;70145;53.746;9.970;2023-11-22T01:49:10;102652.47;;;0.78;57.94
80749;BME280;70145;53.746;9.970;2023-11-22T01:51:37;102659.59;;;0.76;57.79
80749;BME280;70145;53.746;9.970;2023-11-22T01:54:04;102656.94;;;0.75;58.61
80749;BME280;70145;53.746;9.970;2023-11-22T01:56:31;102653.44;;;0.73;58.21
80749;BME280;70145;53.746;9.970;2023-11-22T01:58:57;102641.09;;;0.70;57.79
80749;BME280;70145;53.746;9.970;2023-11-22T02:01:25;102635.81;;;0.69;58.38
80749;BME280;70145;53.746;9.970;2023-11-22T02:03:51;102631.44;;;0.66;58.33
80749;BME280;70145;53.746;9.970;2023-11-22T02:06:19;102629.69;;;0.64;58.26
80749;BME280;70145;53.746;9.970;2023-11-22T02:08:46;102629.72;;;0.62;58.18
80749;BME280;70145;53.746;9.970;2023-11-22T02:11:12;102632.41;;;0.61;57.86
80749;BME280;70145;53.746;9.970;2023-11-22T02:13:37;102631.53;;;0.59;57.71
80749;BME280;70145;53.746;9.970;2023-11-22T02:16:03;102639.53;;;0.56;58.28
80749;BME280;70145;53.746;9.970;2023-11-22T02:18:29;102639.56;;;0.53;57.76
80749;BME280;70145;53.746;9.970;2023-11-22T02:20:54;102647.53;;;0.51;58.13
80749;BME280;70145;53.746;9.970;2023-11-22T02:23:20;102652.03;;;0.48;57.76
80749;BME280;70145;53.746;9.970;2023-11-22T02:25:45;102654.69;;;0.46;58.25
80749;BME280;70145;53.746;9.970;2023-11-22T02:28:11;102668.00;;;0.43;57.65
80749;BME280;70145;53.746;9.970;2023-11-22T02:30:37;102662.72;;;0.40;58.01
80749;BME280;70145;53.746;9.970;2023-11-22T02:33:03;102678.66;;;0.39;58.24
80749;BME280;70145;53.746;9.970;2023-11-22T02:35:30;102679.53;;;0.36;57.96
80749;BME280;70145;53.746;9.970;2023-11-22T02:37:56;102671.66;;;0.33;57.95
80749;BME280;70145;53.746;9.970;2023-11-22T02:40:22;102675.19;;;0.31;57.90
80749;BME280;70145;53.746;9.970;2023-11-22T02:42:52;102677.00;;;0.29;58.21
80749;BME280;70145;53.746;9.970;2023-11-22T02:45:21;102678.78;;;0.27;58.11
80749;BME280;70145;53.746;9.970;2023-11-22T02:47:49;102683.22;;;0.23;58.29
80749;BME280;70145;53.746;9.970;2023-11-22T02:50:15;102671.81;;;0.20;57.45
80749;BME280;70145;53.746;9.970;2023-11-22T02:52:41;102681.53;;;0.18;57.72
80749;BME280;70145;53.746;9.970;2023-11-22T02:55:07;102678.03;;;0.16;57.74
80749;BME280;70145;53.746;9.970;2023-11-22T02:57:34;102681.56;;;0.15;58.00
80749;BME280;70145;53.746;9.970;2023-11-22T03:00:00;102685.16;;;0.11;58.29
80749;BME280;70145;53.746;9.970;2023-11-22T03:02:25;102694.88;;;0.09;57.20
80749;BME280;70145;53.746;9.970;2023-11-22T03:04:51;102702.88;;;0.07;58.13
80749;BME280;70145;53.746;9.970;2023-11-22T03:07:17;102709.94;;;0.04;57.54
80749;BME280;70145;53.746;9.970;2023-11-22T03:09:42;102710.88;;;0.01;57.53
80749;BME280;70145;53.746;9.970;2023-11-22T03:12:09;102710.88;;;-0.00;58.05
80749;BME280;70145;53.746;9.970;2023-11-22T03:14:35;102718.88;;;-0.03;57.96
80749;BME280;70145;53.746;9.970;2023-11-22T03:17:00;102707.38;;;-0.05;57.60
80749;BME280;70145;53.746;9.970;2023-11-22T03:19:26;102710.94;;;-0.06;58.47
80749;BME280;70145;53.746;9.970;2023-11-22T03:21:51;102718.00;;;-0.08;58.08
80749;BME280;70145;53.746;9.970;2023-11-22T03:24:17;102712.72;;;-0.10;57.89
80749;BME280;70145;53.746;9.970;2023-11-22T03:26:42;102723.34;;;-0.11;57.90
80749;BME280;70145;53.746;9.970;2023-11-22T03:29:07;102720.69;;;-0.13;57.88
80749;BME280;70145;53.746;9.970;2023-11-22T03:31:33;102718.06;;;-0.14;57.75
80749;BME280;70145;53.746;9.970;2023-11-22T03:33:58;102719.88;;;-0.16;58.10
80749;BME280;70145;53.746;9.970;2023-11-22T03:36:23;102729.59;;;-0.18;58.09
80749;BME280;70145;53.746;9.970;2023-11-22T03:38:49;102725.16;;;-0.19;57.85
80749;BME280;70145;53.746;9.970;2023-11-22T03:41:15;102735.75;;;-0.19;58.41
80749;BME280;70145;53.746;9.970;2023-11-22T03:43:42;102733.13;;;-0.21;58.59
80749;BME280;70145;53.746;9.970;2023-11-22T03:46:08;102733.13;;;-0.24;57.89
80749;BME280;70145;53.746;9.970;2023-11-22T03:48:33;102737.53;;;-0.24;58.03
80749;BME280;70145;53.746;9.970;2023-11-22T03:50:58;102738.47;;;-0.27;57.66
80749;BME280;70145;53.746;9.970;2023-11-22T03:53:23;102735.81;;;-0.27;58.04
80749;BME280;70145;53.746;9.970;2023-11-22T03:55:49;102748.19;;;-0.30;58.03
80749;BME280;70145;53.746;9.970;2023-11-22T03:58:15;102740.25;;;-0.32;57.91
80749;BME280;70145;53.746;9.970;2023-11-22T04:00:40;102749.09;;;-0.33;58.03
80749;BME280;70145;53.746;9.970;2023-11-22T04:03:06;102746.47;;;-0.34;57.81
80749;BME280;70145;53.746;9.970;2023-11-22T04:05:31;102756.19;;;-0.36;57.70
80749;BME280;70145;53.746;9.970;2023-11-22T04:07:57;102753.56;;;-0.39;57.69
80749;BME280;70145;53.746;9.970;2023-11-22T04:10:22;102743.00;;;-0.39;58.14
80749;BME280;70145;53.746;9.970;2023-11-22T04:12:49;102747.41;;;-0.41;58.55
80749;BME280;70145;53.746;9.970;2023-11-22T04:15:14;102737.72;;;-0.42;58.18
80749;BME280;70145;53.746;9.970;2023-11-22T04:17:40;102733.28;;;-0.45;58.09
80749;BME280;70145;53.746;9.970;2023-11-22T04:20:09;102728.91;;;-0.46;57.99
80749;BME280;70145;53.746;9.970;2023-11-22T04:22:44;102725.38;;;-0.46;57.84
80749;BME280;70145;53.746;9.970;2023-11-22T04:25:12;102731.56;;;-0.49;58.42
80749;BME280;70145;53.746;9.970;2023-11-22T04:27:39;102724.53;;;-0.50;58.11
80749;BME280;70145;53.746;9.970;2023-11-22T04:30:06;102720.13;;;-0.49;58.15
80749;BME280;70145;53.746;9.970;2023-11-22T04:32:34;102718.34;;;-0.50;57.70
80749;BME280;70145;53.746;9.970;2023-11-22T04:35:01;102727.19;;;-0.51;58.35
80749;BME280;70145;53.746;9.970;2023-11-22T04:37:29;102728.97;;;-0.53;58.21
80749;BME280;70145;53.746;9.970;2023-11-22T04:39:57;102727.22;;;-0.54;57.93
80749;BME280;70145;53.746;9.970;2023-11-22T04:42:22;102722.81;;;-0.55;58.19
80749;BME280;70145;53.746;9.970;2023-11-22T04:44:48;102731.63;;;-0.58;58.18
80749;BME280;70145;53.746;9.970;2023-11-22T04:47:14;102739.59;;;-0.59;57.84
80749;BME280;70145;53.746;9.970;2023-11-22T04:49:39;102733.44;;;-0.60;57.69
80749;BME280;70145;53.746;9.970;2023-11-22T04:52:04;102729.06;;;-0.62;57.79
80749;BME280;70145;53.746;9.970;2023-11-22T04:54:30;102726.41;;;-0.64;57.58
80749;BME280;70145;53.746;9.970;2023-11-22T04:56:56;102732.56;;;-0.65;58.00
80749;BME280;70145;53.746;9.970;2023-11-22T04:59:22;102734.38;;;-0.68;57.80
80749;BME280;70145;53.746;9.970;2023-11-22T05:01:47;102728.22;;;-0.70;58.04
80749;BME280;70145;53.746;9.970;2023-11-22T05:04:14;102734.41;;;-0.73;57.86
80749;BME280;70145;53.746;9.970;2023-11-22T05:06:39;102729.13;;;-0.74;58.02
80749;BME280;70145;53.746;9.970;2023-11-22T05:09:04;102739.72;;;-0.77;57.71
80749;BME280;70145;53.746;9.970;2023-11-22T05:11:31;102738.84;;;-0.79;58.10
80749;BME280;70145;53.746;9.970;2023-11-22T05:13:56;102741.50;;;-0.81;57.70
80749;BME280;70145;53.746;9.970;2023-11-22T05:16:21;102739.75;;;-0.83;57.60
80749;BME280;70145;53.746;9.970;2023-11-22T05:18:47;102742.41;;;-0.85;58.29
80749;BME280;70145;53.746;9.970;2023-11-22T05:21:12;102748.59;;;-0.87;58.06
80749;BME280;70145;53.746;9.970;2023-11-22T05:23:38;102751.25;;;-0.89;58.11
80749;BME280;70145;53.746;9.970;2023-11-22T05:26:04;102746.88;;;-0.91;57.87
80749;BME280;70145;53.746;9.970;2023-11-22T05:28:30;102760.09;;;-0.91;57.71
80749;BME280;70145;53.746;9.970;2023-11-22T05:30:56;102767.16;;;-0.93;58.13
80749;BME280;70145;53.746;9.970;2023-11-22T05:33:21;102792.72;;;-0.95;57.49
80749;BME280;70145;53.746;9.970;2023-11-22T05:35:47;102795.38;;;-0.97;58.30
80749;BME280;70145;53.746;9.970;2023-11-22T05:38:13;102791.88;;;-0.99;57.96
80749;BME280;70145;53.746;9.970;2023-11-22T05:40:39;102791.88;;;-0.99;58.15
80749;BME280;70145;53.746;9.970;2023-11-22T05:43:04;102779.56;;;-1.01;57.97
80749;BME280;70145;53.746;9.970;2023-11-22T05:45:30;102768.09;;;-1.03;57.95
80749;BME280;70145;53.746;9.970;2023-11-22T05:47:55;102768.09;;;-1.03;58.69
80749;BME280;70145;53.746;9.970;2023-11-22T05:50:20;102756.63;;;-1.04;58.09
80749;BME280;70145;53.746;9.970;2023-11-22T05:52:46;102760.16;;;-1.05;58.33
80749;BME280;70145;53.746;9.970;2023-11-22T05:55:11;102751.34;;;-1.05;58.07
80749;BME280;70145;53.746;9.970;2023-11-22T05:57:40;102751.34;;;-1.07;58.32
80749;BME280;70145;53.746;9.970;2023-11-22T06:00:07;102760.16;;;-1.06;58.41
80749;BME280;70145;53.746;9.970;2023-11-22T06:02:32;102745.22;;;-1.09;58.02
80749;BME280;70145;53.746;9.970;2023-11-22T06:04:58;102748.72;;;-1.08;58.34
80749;BME280;70145;53.746;9.970;2023-11-22T06:07:23;102742.56;;;-1.09;58.26
80749;BME280;70145;53.746;9.970;2023-11-22T06:09:48;102739.94;;;-1.10;57.76
80749;BME280;70145;53.746;9.970;2023-11-22T06:12:14;102732.88;;;-1.13;57.74
80749;BME280;70145;53.746;9.970;2023-11-22T06:14:39;102732.91;;;-1.14;58.52
80749;BME280;70145;53.746;9.970;2023-11-22T06:17:04;102737.31;;;-1.15;58.12
80749;BME280;70145;53.746;9.970;2023-11-22T06:19:30;102732.91;;;-1.16;57.99
80749;BME280;70145;53.746;9.970;2023-11-22T06:21:56;102731.13;;;-1.18;58.50
80749;BME280;70145;53.746;9.970;2023-11-22T06:24:21;102731.13;;;-1.18;57.98
80749;BME280;70145;53.746;9.970;2023-11-22T06:26:47;102750.53;;;-1.19;58.21
80749;BME280;70145;53.746;9.970;2023-11-22T06:29:12;102751.44;;;-1.22;58.11
80749;BME280;70145;53.746;9.970;2023-11-22T06:31:38;102736.44;;;-1.23;57.74
80749;BME280;70145;53.746;9.970;2023-11-22T06:34:03;102718.81;;;-1.22;58.58
80749;BME280;70145;53.746;9.970;2023-11-22T06:36:29;102742.63;;;-1.24;58.19
80749;BME280;70145;53.746;9.970;2023-11-22T06:38:55;102732.94;;;-1.23;58.50
80749;BME280;70145;53.746;9.970;2023-11-22T06:41:20;102729.41;;;-1.24;58.20
80749;BME280;70145;53.746;9.970;2023-11-22T06:43:47;102734.69;;;-1.26;58.33
80749;BME280;70145;53.746;9.970;2023-11-22T06:46:13;102742.63;;;-1.26;58.20
80749;BME280;70145;53.746;9.970;2023-11-22T06:48:41;102743.53;;;-1.27;58.54
80749;BME280;70145;53.746;9.970;2023-11-22T06:51:06;102738.25;;;-1.27;57.97
80749;BME280;70145;53.746;9.970;2023-11-22T06:53:32;102740.88;;;-1.28;58.31
80749;BME280;70145;53.746;9.970;2023-11-22T06:55:57;102745.28;;;-1.29;58.22
80749;BME280;70145;53.746;9.970;2023-11-22T06:58:22;102737.34;;;-1.29;58.02
80749;BME280;70145;53.746;9.970;2023-11-22T07:00:48;102735.59;;;-1.28;58.23
80749;BME280;70145;53.746;9.970;2023-11-22T07:03:13;102718.84;;;-1.30;58.13
80749;BME280;70145;53.746;9.970;2023-11-22T07:05:40;102729.44;;;-1.29;58.06
80749;BME280;70145;53.746;9.970;2023-11-22T07:08:06;102721.50;;;-1.29;58.47
80749;BME280;70145;53.746;9.970;2023-11-22T07:10:31;102732.06;;;-1.29;58.76
80749;BME280;70145;53.746;9.970;2023-11-22T07:13:00;102736.50;;;-1.29;58.43
80749;BME280;70145;53.746;9.970;2023-11-22T07:15:28;102737.34;;;-1.30;58.52
80749;BME280;70145;53.746;9.970;2023-11-22T07:17:54;102747.94;;;-1.30;58.13
80749;BME280;70145;53.746;9.970;2023-11-22T07:20:20;102747.06;;;-1.31;58.45
80749;BME280;70145;53.746;9.970;2023-11-22T07:22:45;102757.66;;;-1.31;58.27
80749;BME280;70145;53.746;9.970;2023-11-22T07:25:11;102744.44;;;-1.32;58.69
80749;BME280;70145;53.746;9.970;2023-11-22T07:27:46;102762.94;;;-1.34;58.03
80749;BME280;70145;53.746;9.970;2023-11-22T07:30:12;102761.16;;;-1.35;58.52
80749;BME280;70145;53.746;9.970;2023-11-22T07:32:39;102762.94;;;-1.34;58.54
80749;BME280;70145;53.746;9.970;2023-11-22T07:35:05;102767.34;;;-1.33;58.41
80749;BME280;70145;53.746;9.970;2023-11-22T07:37:33;102783.19;;;-1.33;58.57
80749;BME280;70145;53.746;9.970;2023-11-22T07:39:59;102794.66;;;-1.32;58.73
80749;BME280;70145;53.746;9.970;2023-11-22T07:42:25;102792.00;;;-1.31;58.92
80749;BME280;70145;53.746;9.970;2023-11-22T07:44:51;102797.31;;;-1.31;58.56
80749;BME280;70145;53.746;9.970;2023-11-22T07:47:21;102809.63;;;-1.31;58.98
80749;BME280;70145;53.746;9.970;2023-11-22T07:49:48;102816.66;;;-1.30;58.79
80749;BME280;70145;53.746;9.970;2023-11-22T07:52:13;102813.16;;;-1.29;58.55
80749;BME280;70145;53.746;9.970;2023-11-22T07:54:39;102824.59;;;-1.29;58.75
80749;BME280;70145;53.746;9.970;2023-11-22T07:57:05;102824.59;;;-1.29;59.04
80749;BME280;70145;53.746;9.970;2023-11-22T07:59:31;102821.09;;;-1.28;59.29
80749;BME280;70145;53.746;9.970;2023-11-22T08:01:56;102824.59;;;-1.26;59.00
80749;BME280;70145;53.746;9.970;2023-11-22T08:04:22;102827.22;;;-1.24;59.07
80749;BME280;70145;53.746;9.970;2023-11-22T08:06:48;102824.56;;;-1.22;59.27
80749;BME280;70145;53.746;9.970;2023-11-22T08:09:14;102813.09;;;-1.22;58.66
80749;BME280;70145;53.746;9.970;2023-11-22T08:11:41;102804.31;;;-1.20;59.25
80749;BME280;70145;53.746;9.970;2023-11-22T08:14:07;102787.56;;;-1.19;59.39
80749;BME280;70145;53.746;9.970;2023-11-22T08:16:33;102789.31;;;-1.18;59.00
80749;BME280;70145;53.746;9.970;2023-11-22T08:19:03;102787.53;;;-1.16;58.83
80749;BME280;70145;53.746;9.970;2023-11-22T08:21:28;102796.38;;;-1.14;58.98
80749;BME280;70145;53.746;9.970;2023-11-22T08:23:54;102777.81;;;-1.13;59.37
80749;BME280;70145;53.746;9.970;2023-11-22T08:26:19;102769.88;;;-1.11;59.00
80749;BME280;70145;53.746;9.970;2023-11-22T08:28:45;102765.47;;;-1.09;59.69
80749;BME280;70145;53.746;9.970;2023-11-22T08:31:10;102761.94;;;-1.07;59.48
80749;BME280;70145;53.746;9.970;2023-11-22T08:33:39;102779.56;;;-1.06;59.21
80749;BME280;70145;53.746;9.970;2023-11-22T08:36:07;102794.53;;;-1.03;59.47
80749;BME280;70145;53.746;9.970;2023-11-22T08:38:37;102790.13;;;-1.01;59.25
80749;BME280;70145;53.746;9.970;2023-11-22T08:41:06;102788.34;;;-0.99;59.63
80749;BME280;70145;53.746;9.970;2023-11-22T08:43:32;102783.03;;;-0.96;59.86
80749;BME280;70145;53.746;9.970;2023-11-22T08:45:58;102772.44;;;-0.93;59.85
80749;BME280;70145;53.746;9.970;2023-11-22T08:48:24;102765.38;;;-0.90;59.42
80749;BME280;70145;53.746;9.970;2023-11-22T08:50:49;102765.38;;;-0.88;59.55
80749;BME280;70145;53.746;9.970;2023-11-22T08:53:15;102772.41;;;-0.84;59.42
80749;BME280;70145;53.746;9.970;2023-11-22T08:55:40;102775.91;;;-0.82;59.30
80749;BME280;70145;53.746;9.970;2023-11-22T08:58:05;102781.19;;;-0.79;59.77
80749;BME280;70145;53.746;9.970;2023-11-22T09:00:33;102782.94;;;-0.77;59.50
80749;BME280;70145;53.746;9.970;2023-11-22T09:02:58;102784.69;;;-0.74;59.56
80749;BME280;70145;53.746;9.970;2023-11-22T09:05:24;102778.47;;;-0.70;59.82
80749;BME280;70145;53.746;9.970;2023-11-22T09:07:49;102777.56;;;-0.68;59.88
80749;BME280;70145;53.746;9.970;2023-11-22T09:10:16;102772.28;;;-0.66;60.38
80749;BME280;70145;53.746;9.970;2023-11-22T09:12:43;102781.97;;;-0.62;60.03
80749;BME280;70145;53.746;9.970;2023-11-22T09:15:12;102773.13;;;-0.58;60.33
80749;BME280;70145;53.746;9.970;2023-11-22T09:17:42;102778.41;;;-0.55;60.59
80749;BME280;70145;53.746;9.970;2023-11-22T09:20:15;102779.25;;;-0.52;60.04
80749;BME280;70145;53.746;9.970;2023-11-22T09:22:51;102775.72;;;-0.49;60.11
80749;BME280;70145;53.746;9.970;2023-11-22T09:25:24;102781.84;;;-0.47;60.28
80749;BME280;70145;53.746;9.970;2023-11-22T09:27:51;102792.44;;;-0.44;60.70
80749;BME280;70145;53.746;9.970;2023-11-22T09:30:22;102797.69;;;-0.41;60.34
80749;BME280;70145;53.746;9.970;2023-11-22T09:33:14;102807.38;;;-0.39;60.61
80749;BME280;70145;53.746;9.970;2023-11-22T09:35:40;102809.16;;;-0.36;60.33
80749;BME280;70145;53.746;9.970;2023-11-22T09:38:07;102801.19;;;-0.33;60.44
80749;BME280;70145;53.746;9.970;2023-11-22T09:43:06;102811.72;;;-0.27;60.78
80749;BME280;70145;53.746;9.970;2023-11-22T09:45:32;102816.97;;;-0.24;60.48
80749;BME280;70145;53.746;9.970;2023-11-22T09:47:58;102817.84;;;-0.21;60.52
80749;BME280;70145;53.746;9.970;2023-11-22T09:50:49;102822.28;;;-0.18;60.82
80749;BME280;70145;53.746;9.970;2023-11-22T09:53:52;102819.63;;;-0.17;60.38
80749;BME280;70145;53.746;9.970;2023-11-22T09:56:19;102812.56;;;-0.15;60.73
80749;BME280;70145;53.746;9.970;2023-11-22T09:58:44;102822.22;;;-0.12;60.92
80749;BME280;70145;53.746;9.970;2023-11-22T10:01:13;102819.56;;;-0.08;60.77
80749;BME280;70145;53.746;9.970;2023-11-22T10:03:39;102823.03;;;-0.04;60.39
80749;BME280;70145;53.746;9.970;2023-11-22T10:06:05;102802.72;;;-0.02;60.84
80749;BME280;70145;53.746;9.970;2023-11-22T10:08:30;102797.41;;;0.01;60.56
80749;BME280;70145;53.746;9.970;2023-11-22T10:10:57;102798.28;;;0.04;60.78
80749;BME280;70145;53.746;9.970;2023-11-22T10:13:23;102799.09;;;0.08;60.84
80749;BME280;70145;53.746;9.970;2023-11-22T10:15:49;102789.38;;;0.11;61.14
80749;BME280;70145;53.746;9.970;2023-11-22T10:18:15;102776.09;;;0.13;60.94
80749;BME280;70145;53.746;9.970;2023-11-22T10:20:43;102776.94;;;0.16;60.72
80749;BME280;70145;53.746;9.970;2023-11-22T10:23:12;102770.75;;;0.19;61.11
80749;BME280;70145;53.746;9.970;2023-11-22T10:25:51;102780.41;;;0.23;61.17
80749;BME280;70145;53.746;9.970;2023-11-22T10:28:21;102775.06;;;0.27;61.77
80749;BME280;70145;53.746;9.970;2023-11-22T10:30:48;102742.34;;;0.30;61.07
80749;BME280;70145;53.746;9.970;2023-11-22T10:33:15;102737.88;;;0.35;61.42
80749;BME280;70145;53.746;9.970;2023-11-22T10:35:45;102735.19;;;0.38;61.20
80749;BME280;70145;53.746;9.970;2023-11-22T10:38:18;102733.41;;;0.40;61.25
80749;BME280;70145;53.746;9.970;2023-11-22T10:40:44;102728.06;;;0.44;62.05
80749;BME280;70145;53.746;9.970;2023-11-22T10:43:14;102716.53;;;0.47;61.42
80749;BME280;70145;53.746;9.970;2023-11-22T10:45:44;102697.03;;;0.49;61.70
80749;BME280;70145;53.746;9.970;2023-11-22T10:48:16;102707.63;;;0.52;61.79
80749;BME280;70145;53.746;9.970;2023-11-22T10:50:42;102681.97;;;0.54;62.12
80749;BME280;70145;53.746;9.970;2023-11-22T10:53:11;102675.72;;;0.58;61.54
80749;BME280;70145;53.746;9.970;2023-11-22T10:55:45;102687.19;;;0.62;62.06
80749;BME280;70145;53.746;9.970;2023-11-22T10:58:14;102670.34;;;0.64;61.77
80749;BME280;70145;53.746;9.970;2023-11-22T11:00:41;102671.19;;;0.68;62.08
80749;BME280;70145;53.746;9.970;2023-11-22T11:03:12;102665.00;;;0.69;62.23
80749;BME280;70145;53.746;9.970;2023-11-22T11:05:42;102662.28;;;0.73;62.00
80749;BME280;70145;53.746;9.970;2023-11-22T11:08:11;102660.44;;;0.77;62.65
80749;BME280;70145;53.746;9.970;2023-11-22T11:10:41;102654.22;;;0.81;62.81
80749;BME280;70145;53.746;9.970;2023-11-22T11:13:08;102642.66;;;0.85;62.56
80749;BME280;70145;53.746;9.970;2023-11-22T11:15:40;102649.66;;;0.90;62.82
80749;BME280;70145;53.746;9.970;2023-11-22T11:18:15;102635.44;;;0.94;63.08
80749;BME280;70145;53.746;9.970;2023-11-22T11:20:50;102623.88;;;1.00;62.62
80749;BME280;70145;53.746;9.970;2023-11-22T11:23:20;102599.91;;;1.03;62.93
80749;BME280;70145;53.746;9.970;2023-11-22T11:25:49;102592.78;;;1.08;63.12
80749;BME280;70145;53.746;9.970;2023-11-22T11:28:16;102583.00;;;1.10;63.08
80749;BME280;70145;53.746;9.970;2023-11-22T11:30:46;102572.31;;;1.15;63.12
80749;BME280;70145;53.746;9.970;2023-11-22T11:33:14;102574.88;;;1.19;62.67
80749;BME280;70145;53.746;9.970;2023-11-22T11:35:43;102582.75;;;1.24;63.15
80749;BME280;70145;53.746;9.970;2023-11-22T11:38:11;102566.81;;;1.25;63.15
80749;BME280;70145;53.746;9.970;2023-11-22T11:40:40;102545.50;;;1.30;62.97
80749;BME280;70145;53.746;9.970;2023-11-22T11:43:06;102524.16;;;1.36;63.23
80749;BME280;70145;53.746;9.970;2023-11-22T11:45:37;102520.63;;;1.35;62.80
80749;BME280;70145;53.746;9.970;2023-11-22T11:48:04;102516.13;;;1.39;62.85
80749;BME280;70145;53.746;9.970;2023-11-22T11:50:30;102524.94;;;1.42;62.40
80749;BME280;70145;53.746;9.970;2023-11-22T11:52:55;102508.00;;;1.48;62.87
80749;BME280;70145;53.746;9.970;2023-11-22T11:55:20;102489.44;;;1.46;61.67
80749;BME280;70145;53.746;9.970;2023-11-22T11:57:46;102475.19;;;1.50;61.93
80749;BME280;70145;53.746;9.970;2023-11-22T12:00:13;102472.44;;;1.56;62.20
80749;BME280;70145;53.746;9.970;2023-11-22T12:02:39;102475.03;;;1.59;61.55
80749;BME280;70145;53.746;9.970;2023-11-22T12:05:06;102501.50;;;1.64;61.46
80749;BME280;70145;53.746;9.970;2023-11-22T12:07:35;102516.41;;;1.69;61.34
80749;BME280;70145;53.746;9.970;2023-11-22T12:10:01;102549.06;;;1.74;61.29
80749;BME280;70145;53.746;9.970;2023-11-22T12:12:26;102564.94;;;1.77;61.09
80749;BME280;70145;53.746;9.970;2023-11-22T12:14:51;102543.63;;;1.80;60.67
80749;BME280;70145;53.746;9.970;2023-11-22T12:17:17;102539.97;;;1.86;60.26
80749;BME280;70145;53.746;9.970;2023-11-22T12:19:43;102538.16;;;1.89;60.30
80749;BME280;70145;53.746;9.970;2023-11-22T12:22:08;102533.72;;;1.90;59.66
80749;BME280;70145;53.746;9.970;2023-11-22T12:24:34;102538.91;;;1.96;59.83
80749;BME280;70145;53.746;9.970;2023-11-22T12:27:00;102539.69;;;1.99;59.63
80749;BME280;70145;53.746;9.970;2023-11-22T12:29:25;102535.22;;;2.03;59.67
80749;BME280;70145;53.746;9.970;2023-11-22T12:31:51;102536.03;;;2.05;59.17
80749;BME280;70145;53.746;9.970;2023-11-22T12:34:22;102525.38;;;2.06;58.92
80749;BME280;70145;53.746;9.970;2023-11-22T12:36:48;102523.56;;;2.08;58.44
80749;BME280;70145;53.746;9.970;2023-11-22T12:39:14;102511.16;;;2.09;58.34
80749;BME280;70145;53.746;9.970;2023-11-22T12:41:49;102513.75;;;2.10;57.42
80749;BME280;70145;53.746;9.970;2023-11-22T12:44:16;102516.34;;;2.13;57.53
80749;BME280;70145;53.746;9.970;2023-11-22T12:46:49;102509.22;;;2.15;57.18
80749;BME280;70145;53.746;9.970;2023-11-22T12:49:20;102516.31;;;2.15;56.54
80749;BME280;70145;53.746;9.970;2023-11-22T12:51:50;102510.94;;;2.18;56.81
80749;BME280;70145;53.746;9.970;2023-11-22T12:54:16;102510.91;;;2.19;56.44
80749;BME280;70145;53.746;9.970;2023-11-22T12:56:42;102509.09;;;2.21;56.73